createdAt,value
2019-04-06T00:01:58.165Z,81.80
2019-04-06T00:04:29.481Z,81.81
2019-04-06T00:07:00.751Z,81.95
2019-04-06T00:09:32.083Z,82.18
2019-04-06T00:12:03.369Z,81.92
2019-04-06T00:14:34.680Z,82.30
2019-04-06T00:17:06.055Z,82.65
2019-04-06T00:19:37.377Z,82.33
2019-04-06T00:22:08.586Z,82.27
2019-04-06T00:24:39.969Z,82.43
2019-04-06T00:27:11.305Z,82.65
2019-04-06T00:29:42.701Z,82.61
2019-04-06T00:32:20.274Z,82.38
2019-04-06T00:34:51.551Z,82.43
2019-04-06T00:37:22.888Z,82.58
2019-04-06T00:45:13.870Z,82.53
2019-04-06T00:47:45.179Z,82.68
2019-04-06T00:50:17.236Z,82.72
2019-04-06T00:52:48.585Z,82.86
2019-04-06T00:55:19.916Z,82.70
2019-04-06T00:57:51.231Z,82.85
2019-04-06T01:00:22.861Z,82.83
2019-04-06T01:02:54.127Z,82.72
2019-04-06T01:05:25.458Z,83.09
2019-04-06T01:07:56.761Z,82.95
2019-04-06T01:10:28.072Z,83.20
2019-04-06T01:12:59.359Z,83.00
2019-04-06T01:15:30.738Z,83.09
2019-04-06T01:18:02.042Z,83.17
2019-04-06T01:20:33.522Z,83.10
2019-04-06T01:23:04.826Z,83.21
2019-04-06T01:25:36.672Z,83.33
2019-04-06T01:28:07.895Z,83.42
2019-04-06T01:30:39.259Z,83.26
2019-04-06T01:33:10.477Z,83.53
2019-04-06T01:35:41.895Z,83.26
2019-04-06T01:38:13.223Z,83.11
2019-04-06T01:40:44.673Z,83.21
2019-04-06T01:43:16.021Z,83.42
2019-04-06T01:45:47.340Z,83.38
2019-04-06T01:48:18.686Z,83.46
2019-04-06T01:50:49.986Z,83.53
2019-04-06T01:53:21.343Z,83.38
2019-04-06T01:55:52.659Z,83.39
2019-04-06T01:58:23.930Z,83.62
2019-04-06T02:01:17.067Z,83.43
2019-04-06T02:03:48.385Z,83.31
2019-04-06T02:06:19.667Z,82.96
2019-04-06T02:09:10.002Z,83.04
2019-04-06T02:14:44.952Z,83.13
2019-04-06T02:17:16.302Z,83.17
2019-04-06T02:19:47.673Z,83.07
2019-04-06T02:22:18.958Z,83.19
2019-04-06T02:24:50.200Z,83.09
2019-04-06T02:27:21.382Z,83.45
2019-04-06T02:30:13.630Z,83.58
2019-04-06T02:32:54.926Z,83.66
2019-04-06T02:35:38.899Z,83.42
2019-04-06T02:38:38.137Z,83.47
2019-04-06T02:41:14.849Z,83.54
2019-04-06T02:43:46.239Z,83.40
2019-04-06T02:46:17.657Z,83.74
2019-04-06T02:48:48.927Z,83.69
2019-04-06T02:51:20.222Z,83.60
2019-04-06T02:53:51.629Z,83.64
2019-04-06T02:56:22.924Z,83.65
2019-04-06T02:58:54.112Z,83.80
2019-04-06T03:01:25.316Z,83.41
2019-04-06T03:03:56.735Z,83.45
2019-04-06T03:06:28.092Z,83.53
2019-04-06T03:08:59.304Z,83.66
2019-04-06T03:11:30.640Z,83.62
2019-04-06T03:14:01.968Z,83.42
2019-04-06T03:16:33.241Z,83.65
2019-04-06T03:19:04.550Z,83.56
2019-04-06T03:21:35.996Z,83.77
2019-04-06T03:24:07.251Z,83.54
2019-04-06T03:26:38.447Z,83.62
2019-04-06T03:29:09.898Z,83.54
2019-04-06T03:31:41.413Z,83.42
2019-04-06T03:34:12.927Z,83.48
2019-04-06T03:36:44.313Z,83.56
2019-04-06T03:39:15.634Z,83.78
2019-04-06T03:47:07.511Z,84.05
2019-04-06T03:49:38.853Z,84.48
2019-04-06T03:52:10.007Z,83.52
2019-04-06T03:54:41.241Z,83.66
2019-04-06T03:57:16.001Z,83.46
2019-04-06T03:59:45.410Z,83.22
2019-04-06T04:02:16.668Z,83.36
2019-04-06T04:04:47.898Z,83.29
2019-04-06T04:07:19.195Z,83.35
2019-04-06T04:09:50.530Z,83.44
2019-04-06T04:12:21.747Z,83.39
2019-04-06T04:14:53.002Z,83.50
2019-04-06T04:17:24.267Z,83.54
2019-04-06T04:19:55.665Z,83.22
2019-04-06T04:22:26.929Z,83.26
2019-04-06T04:24:58.291Z,83.18
2019-04-06T04:27:30.706Z,83.28
2019-04-06T04:30:02.258Z,83.29
2019-04-06T04:32:33.381Z,83.33
2019-04-06T04:35:05.366Z,83.49
2019-04-06T04:37:36.649Z,83.80
2019-04-06T04:40:08.080Z,84.23
2019-04-06T04:42:39.256Z,83.99
2019-04-06T04:45:10.695Z,84.41
2019-04-06T04:47:41.910Z,84.13
2019-04-06T04:50:14.164Z,83.93
2019-04-06T04:52:45.391Z,83.97
2019-04-06T04:55:16.661Z,83.89
2019-04-06T04:57:48.140Z,84.02
2019-04-06T05:00:19.428Z,83.64
2019-04-06T05:02:50.707Z,84.00
2019-04-06T05:05:21.948Z,84.16
2019-04-06T05:07:53.116Z,84.26
2019-04-06T05:10:24.535Z,84.06
2019-04-06T05:12:55.824Z,84.15
2019-04-06T05:16:21.026Z,83.52
2019-04-06T05:18:52.452Z,82.85
2019-04-06T05:21:23.716Z,82.98
2019-04-06T05:23:55.092Z,83.29
2019-04-06T05:26:36.570Z,83.15
2019-04-06T05:28:59.317Z,83.20
2019-04-06T05:31:30.613Z,83.25
2019-04-06T05:34:01.820Z,82.84
2019-04-06T05:36:33.109Z,82.75
2019-04-06T05:39:05.226Z,82.90
2019-04-06T05:41:36.529Z,83.07
2019-04-06T05:44:07.776Z,83.19
2019-04-06T05:46:39.090Z,83.07
2019-04-06T05:49:10.335Z,82.98
2019-04-06T05:51:41.660Z,82.96
2019-04-06T05:54:12.866Z,83.09
2019-04-06T05:56:44.152Z,82.82
2019-04-06T05:59:15.375Z,82.88
2019-04-06T06:01:48.575Z,83.12
2019-04-06T06:04:19.563Z,82.90
2019-04-06T06:06:50.690Z,82.77
2019-04-06T06:09:21.965Z,82.86
2019-04-06T06:11:55.539Z,82.39
2019-04-06T06:14:26.154Z,82.42
2019-04-06T06:16:57.344Z,82.18
2019-04-06T06:19:28.600Z,82.42
2019-04-06T06:21:59.817Z,82.02
2019-04-06T06:24:31.065Z,81.72
2019-04-06T06:27:02.414Z,81.44
2019-04-06T06:29:33.734Z,81.15
2019-04-06T06:32:05.366Z,81.19
2019-04-06T06:34:36.675Z,81.22
2019-04-06T06:37:07.892Z,81.44
2019-04-06T06:39:39.422Z,81.10
2019-04-06T06:42:10.534Z,81.03
2019-04-06T06:44:41.833Z,80.04
2019-04-06T06:47:13.001Z,79.73
2019-04-06T06:49:46.746Z,79.97
2019-04-06T06:52:17.957Z,79.58
2019-04-06T06:54:49.153Z,79.25
2019-04-06T06:57:20.543Z,79.13
2019-04-06T06:59:51.888Z,78.93
2019-04-06T07:02:23.931Z,78.61
2019-04-06T07:04:59.725Z,78.58
2019-04-06T07:07:33.695Z,79.06
2019-04-06T07:10:24.087Z,79.04
2019-04-06T07:12:57.560Z,79.10
2019-04-06T07:15:28.806Z,79.36
2019-04-06T07:17:59.983Z,79.04
2019-04-06T07:20:31.205Z,78.73
2019-04-06T07:23:02.562Z,78.71
2019-04-06T07:25:33.888Z,79.13
2019-04-06T07:28:05.205Z,78.52
2019-04-06T07:30:36.456Z,78.39
2019-04-06T07:33:07.945Z,78.41
2019-04-06T07:35:39.225Z,78.09
2019-04-06T07:38:10.776Z,78.44
2019-04-06T07:40:42.009Z,78.22
2019-04-06T07:43:13.314Z,77.71
2019-04-06T07:45:44.617Z,77.51
2019-04-06T07:48:15.862Z,76.90
2019-04-06T07:50:47.302Z,77.14
2019-04-06T07:53:18.605Z,76.63
2019-04-06T07:55:49.891Z,76.83
2019-04-06T07:58:21.236Z,75.41
2019-04-06T08:00:52.506Z,75.23
2019-04-06T08:03:23.791Z,75.40
2019-04-06T08:05:57.240Z,75.44
2019-04-06T08:08:29.080Z,75.01
2019-04-06T08:11:00.623Z,74.27
2019-04-06T08:13:32.038Z,74.25
2019-04-06T08:18:35.888Z,73.74
2019-04-06T08:21:07.249Z,73.71
2019-04-06T08:23:38.661Z,72.71
2019-04-06T08:26:10.059Z,72.34
2019-04-06T08:28:41.277Z,71.57
2019-04-06T08:31:12.820Z,71.97
2019-04-06T08:33:44.055Z,71.89
2019-04-06T08:36:15.325Z,71.26
2019-04-06T08:38:47.395Z,71.52
2019-04-06T08:41:18.659Z,72.63
2019-04-06T08:43:49.958Z,72.87
2019-04-06T08:46:21.258Z,72.31
2019-04-06T08:48:52.487Z,70.76
2019-04-06T08:51:23.593Z,70.05
2019-04-06T08:53:54.915Z,69.23
2019-04-06T08:56:26.186Z,67.14
2019-04-06T08:58:57.388Z,67.03
2019-04-06T09:01:28.613Z,66.94
2019-04-06T09:04:00.119Z,66.18
2019-04-06T09:06:38.429Z,65.57
2019-04-06T09:09:20.976Z,65.19
2019-04-06T09:11:52.306Z,65.42
2019-04-06T09:14:23.633Z,64.76
2019-04-06T09:16:54.923Z,63.53
2019-04-06T09:19:26.504Z,62.68
2019-04-06T09:21:57.798Z,61.64
2019-04-06T09:24:29.619Z,62.62
2019-04-06T09:27:01.000Z,61.63
2019-04-06T09:29:32.260Z,60.44
2019-04-06T09:32:03.638Z,61.17
2019-04-06T09:34:34.906Z,59.26
2019-04-06T09:37:06.203Z,57.50
2019-04-06T09:39:37.476Z,58.65
2019-04-06T09:42:08.834Z,60.00
2019-04-06T09:44:46.422Z,60.24
2019-04-06T09:47:34.772Z,60.81
2019-04-06T09:50:34.607Z,61.17
2019-04-06T09:53:33.190Z,60.79
2019-04-06T09:56:25.474Z,58.70
2019-04-06T09:59:14.399Z,57.20
2019-04-06T10:02:05.320Z,58.10
2019-04-06T10:04:54.070Z,57.67
2019-04-06T10:07:49.505Z,58.11
2019-04-06T10:10:39.521Z,58.08
2019-04-06T10:13:18.935Z,58.05
2019-04-06T10:16:07.902Z,57.23
2019-04-06T10:19:07.058Z,58.86
2019-04-06T10:22:03.409Z,59.75
2019-04-06T10:25:02.901Z,59.70
2019-04-06T10:27:55.570Z,58.08
2019-04-06T10:30:54.506Z,57.04
2019-04-06T10:33:43.183Z,57.84
2019-04-06T10:36:39.334Z,57.65
2019-04-06T10:39:35.532Z,56.42
2019-04-06T10:42:24.424Z,56.62
2019-04-06T10:45:16.957Z,56.74
2019-04-06T10:48:16.275Z,57.14
2019-04-06T10:51:13.579Z,57.59
2019-04-06T10:54:04.152Z,56.55
2019-04-06T10:56:50.160Z,55.71
2019-04-06T11:00:00.300Z,55.72
2019-04-06T11:02:58.492Z,56.72
2019-04-06T11:05:51.601Z,56.19
2019-04-06T11:08:50.805Z,56.39
2019-04-06T11:11:44.598Z,55.79
2019-04-06T11:17:16.796Z,57.21
2019-04-06T11:20:23.590Z,56.22
2019-04-06T11:23:22.176Z,55.70
2019-04-06T11:26:12.155Z,55.99
2019-04-06T11:29:20.518Z,56.07
2019-04-06T11:32:48.965Z,55.82
2019-04-06T11:37:31.487Z,54.98
2019-04-06T11:43:04.106Z,54.13
2019-04-06T11:52:46.485Z,54.68
2019-04-06T11:55:39.421Z,53.86
2019-04-06T11:58:41.742Z,52.63
2019-04-06T12:01:20.436Z,52.37
2019-04-06T12:04:07.633Z,53.21
2019-04-06T12:06:56.262Z,53.79
2019-04-06T12:09:45.371Z,52.95
2019-04-06T12:12:36.506Z,52.72
2019-04-06T12:15:39.304Z,52.75
2019-04-06T12:18:29.390Z,53.40
2019-04-06T12:21:13.934Z,53.17
2019-04-06T12:24:07.443Z,53.22
2019-04-06T12:27:15.985Z,52.35
2019-04-06T12:29:54.624Z,51.22
2019-04-06T12:32:47.983Z,50.12
2019-04-06T12:35:41.163Z,49.93
2019-04-06T12:38:27.136Z,49.59
2019-04-06T12:41:15.932Z,49.56
2019-04-06T12:44:20.018Z,51.35
2019-04-06T12:47:15.271Z,50.20
2019-04-06T12:50:11.044Z,50.32
2019-04-06T12:53:00.184Z,50.23
2019-04-06T12:55:51.716Z,49.91
2019-04-06T12:58:41.748Z,52.74
2019-04-06T13:01:34.835Z,53.76
2019-04-06T13:04:23.759Z,54.39
2019-04-06T13:07:29.122Z,54.17
2019-04-06T13:10:19.686Z,54.16
2019-04-06T13:13:10.247Z,54.74
2019-04-06T13:15:53.339Z,54.55
2019-04-06T13:18:42.243Z,53.71
2019-04-06T13:21:31.181Z,53.48
2019-04-06T13:24:26.744Z,53.30
2019-04-06T13:27:06.736Z,53.42
2019-04-06T13:29:51.976Z,52.88
2019-04-06T13:32:45.104Z,53.70
2019-04-06T13:35:51.556Z,54.92
2019-04-06T13:38:47.807Z,54.66
2019-04-06T13:41:38.112Z,54.55
2019-04-06T13:44:20.496Z,54.06
2019-04-06T13:47:22.615Z,54.24
2019-04-06T13:50:24.939Z,53.44
2019-04-06T13:53:05.894Z,52.71
2019-04-06T13:55:58.914Z,52.42
2019-04-06T13:58:59.676Z,51.92
2019-04-06T14:01:37.871Z,51.20
2019-04-06T14:04:24.608Z,51.42
2019-04-06T14:07:23.693Z,52.26
2019-04-06T14:10:16.742Z,50.99
2019-04-06T14:13:06.732Z,52.17
2019-04-06T14:15:54.629Z,51.60
2019-04-06T14:18:43.673Z,51.46
2019-04-06T14:21:33.676Z,51.35
2019-04-06T14:24:23.704Z,50.95
2019-04-06T14:27:06.485Z,51.09
2019-04-06T14:29:55.809Z,51.17
2019-04-06T14:32:40.584Z,51.35
2019-04-06T14:35:46.173Z,50.82
2019-04-06T14:38:54.161Z,50.28
2019-04-06T14:41:43.176Z,50.80
2019-04-06T14:44:39.071Z,50.25
2019-04-06T14:47:30.751Z,50.62
2019-04-06T14:50:19.273Z,51.19
2019-04-06T14:53:11.519Z,51.09
2019-04-06T14:56:04.671Z,50.60
2019-04-06T14:59:05.109Z,50.40
2019-04-06T15:01:55.546Z,50.99
2019-04-06T15:04:42.207Z,51.40
2019-04-06T15:07:38.279Z,51.73
2019-04-06T15:10:18.817Z,50.40
2019-04-06T15:13:07.886Z,51.01
2019-04-06T15:16:14.448Z,51.26
2019-04-06T15:19:19.656Z,50.67
2019-04-06T15:22:12.817Z,51.69
2019-04-06T15:25:08.760Z,51.36
2019-04-06T15:28:15.323Z,51.08
2019-04-06T15:31:03.219Z,51.50
2019-04-06T15:33:59.581Z,51.69
2019-04-06T15:36:52.397Z,51.24
2019-04-06T15:42:12.425Z,50.71
2019-04-06T15:45:11.914Z,52.04
2019-04-06T15:48:15.029Z,50.96
2019-04-06T15:51:11.282Z,51.77
2019-04-06T15:54:10.616Z,51.74
2019-04-06T15:57:09.755Z,52.03
2019-04-06T16:00:12.320Z,51.76
2019-04-06T16:03:08.598Z,51.66
2019-04-06T16:05:59.536Z,51.94
2019-04-06T16:08:49.486Z,52.70
2019-04-06T16:11:52.289Z,53.59
2019-04-06T16:14:45.731Z,54.11
2019-04-06T16:17:47.872Z,54.84
2019-04-06T16:20:26.931Z,54.80
2019-04-06T16:23:32.623Z,54.74
2019-04-06T16:26:25.737Z,54.69
2019-04-06T16:29:15.033Z,54.34
2019-04-06T16:32:13.845Z,54.02
2019-04-06T16:35:06.613Z,53.85
2019-04-06T16:37:58.274Z,53.85
2019-04-06T16:40:56.003Z,53.50
2019-04-06T16:43:58.360Z,53.26
2019-04-06T16:46:51.551Z,53.29
2019-04-06T16:49:56.709Z,53.63
2019-04-06T16:52:57.829Z,54.63
2019-04-06T16:55:47.258Z,54.85
2019-04-06T16:58:29.478Z,55.64
2019-04-06T17:01:11.161Z,56.21
2019-04-06T17:03:51.400Z,56.06
2019-04-06T17:06:43.256Z,56.58
2019-04-06T17:09:42.307Z,56.72
2019-04-06T17:12:31.117Z,57.12
2019-04-06T17:15:23.321Z,57.35
2019-04-06T17:18:09.316Z,57.81
2019-04-06T17:21:04.716Z,58.36
2019-04-06T17:23:57.572Z,58.53
2019-04-06T17:26:51.901Z,58.67
2019-04-06T17:29:45.925Z,58.96
2019-04-06T17:32:38.631Z,59.85
2019-04-06T17:35:27.545Z,60.22
2019-04-06T17:38:29.604Z,60.80
2019-04-06T17:41:53.492Z,61.10
2019-04-06T17:44:50.139Z,61.54
2019-04-06T17:47:42.878Z,62.24
2019-04-06T17:50:23.928Z,62.57
2019-04-06T17:53:20.155Z,63.22
2019-04-06T17:56:12.924Z,63.73
2019-04-06T17:59:03.005Z,64.27
2019-04-06T18:01:53.142Z,64.85
2019-04-06T18:04:47.027Z,65.12
2019-04-06T18:07:34.909Z,65.86
2019-04-06T18:10:17.436Z,66.46
2019-04-06T18:13:11.747Z,66.83
2019-04-06T18:15:59.468Z,67.21
2019-04-06T18:18:33.009Z,67.82
2019-04-06T18:21:05.051Z,68.16
2019-04-06T18:23:40.613Z,68.78
2019-04-06T18:26:25.579Z,69.42
2019-04-06T18:29:06.558Z,70.08
2019-04-06T18:31:59.686Z,70.56
2019-04-06T18:34:38.763Z,71.44
2019-04-06T18:39:53.562Z,73.25
2019-04-06T18:42:36.700Z,73.62
2019-04-06T18:45:08.680Z,73.86
2019-04-06T18:47:42.827Z,72.50
2019-04-06T18:50:17.243Z,70.75
2019-04-06T18:52:48.853Z,69.59
2019-04-06T18:55:21.397Z,69.53
2019-04-06T18:57:54.368Z,68.53
2019-04-06T19:00:26.389Z,67.80
2019-04-06T19:03:11.067Z,68.03
2019-04-06T19:05:32.190Z,67.95
2019-04-06T19:08:05.220Z,67.19
2019-04-06T19:10:38.430Z,68.26
2019-04-06T19:13:09.991Z,68.76
2019-04-06T19:15:45.649Z,68.83
2019-04-06T19:18:18.457Z,69.30
2019-04-06T19:20:52.867Z,69.30
2019-04-06T19:23:24.471Z,68.94
2019-04-06T19:25:55.948Z,69.66
2019-04-06T19:28:28.842Z,70.02
2019-04-06T19:31:00.272Z,70.48
2019-04-06T19:33:33.299Z,70.88
2019-04-06T19:36:07.028Z,71.32
2019-04-06T19:38:38.416Z,71.50
2019-04-06T19:41:09.695Z,71.91
2019-04-06T19:43:40.996Z,71.91
2019-04-06T19:46:12.380Z,72.33
2019-04-06T19:48:43.682Z,72.77
2019-04-06T19:51:14.947Z,73.46
2019-04-06T19:53:46.142Z,73.94
2019-04-06T19:56:17.452Z,74.15
2019-04-06T19:58:49.278Z,74.17
2019-04-06T20:01:22.219Z,74.33
2019-04-06T20:03:56.394Z,74.17
2019-04-06T20:06:29.580Z,73.61
2019-04-06T20:09:00.873Z,73.90
2019-04-06T20:11:32.181Z,73.64
2019-04-06T20:14:04.064Z,74.04
2019-04-06T20:16:35.692Z,74.63
2019-04-06T20:19:09.208Z,74.85
2019-04-06T20:21:40.988Z,74.84
2019-04-06T20:24:12.749Z,74.54
2019-04-06T20:26:44.127Z,74.68
2019-04-06T20:29:15.533Z,74.89
2019-04-06T20:31:47.189Z,74.31
2019-04-06T20:34:18.599Z,74.31
2019-04-06T20:36:49.837Z,73.30
2019-04-06T20:39:21.127Z,72.67
2019-04-06T20:41:52.385Z,72.03
2019-04-06T20:44:23.737Z,71.37
2019-04-06T20:46:55.138Z,71.48
2019-04-06T20:49:26.379Z,70.92
2019-04-06T20:51:58.890Z,70.97
2019-04-06T20:54:30.741Z,71.55
2019-04-06T20:57:02.210Z,72.06
2019-04-06T20:59:33.493Z,72.23
2019-04-06T21:02:04.771Z,72.64
2019-04-06T21:04:35.937Z,72.84
2019-04-06T21:07:07.201Z,72.74
2019-04-06T21:09:38.397Z,73.07
2019-04-06T21:12:09.751Z,73.46
2019-04-06T21:14:41.502Z,73.80
2019-04-06T21:17:12.935Z,74.46
2019-04-06T21:19:44.290Z,74.81
2019-04-06T21:22:16.136Z,74.92
2019-04-06T21:24:47.384Z,75.35
2019-04-06T21:27:18.678Z,75.81
2019-04-06T21:29:49.933Z,75.93
2019-04-06T21:34:50.892Z,76.16
2019-04-06T21:37:22.685Z,76.35
2019-04-06T21:39:54.311Z,76.41
2019-04-06T21:42:26.405Z,76.25
2019-04-06T21:44:58.146Z,75.94
2019-04-06T21:47:29.673Z,76.25
2019-04-06T21:50:00.824Z,76.61
2019-04-06T21:52:32.023Z,76.65
2019-04-06T21:55:03.719Z,76.75
2019-04-06T21:57:35.485Z,77.09
2019-04-06T22:00:08.656Z,77.53
2019-04-06T22:02:40.210Z,77.45
2019-04-06T22:05:12.058Z,77.34
2019-04-06T22:07:49.586Z,77.43
2019-04-06T22:10:17.244Z,77.62
2019-04-06T22:12:48.995Z,77.21
2019-04-06T22:15:20.318Z,76.64
2019-04-06T22:17:51.974Z,76.34
2019-04-06T22:20:23.337Z,75.85
2019-04-06T22:22:54.591Z,75.11
2019-04-06T22:25:25.841Z,74.05
2019-04-06T22:27:57.021Z,74.04
2019-04-06T22:30:28.181Z,73.89
2019-04-06T22:32:59.303Z,73.80
2019-04-06T22:35:30.542Z,73.06
2019-04-06T22:38:01.798Z,73.16
2019-04-06T22:40:32.965Z,73.17
2019-04-06T22:43:04.722Z,73.17
2019-04-06T22:45:36.123Z,73.09
2019-04-06T22:48:07.502Z,72.85
2019-04-06T22:50:39.345Z,72.89
2019-04-06T22:53:10.636Z,73.16
2019-04-06T22:55:41.770Z,73.10
2019-04-06T22:58:13.082Z,72.67
2019-04-06T23:00:53.112Z,72.54
2019-04-06T23:03:43.473Z,72.24
2019-04-06T23:06:18.694Z,72.61
2019-04-06T23:08:49.977Z,71.98
2019-04-06T23:11:21.612Z,72.14
2019-04-06T23:13:53.353Z,72.11
2019-04-06T23:16:24.562Z,72.18
2019-04-06T23:18:56.085Z,72.19
2019-04-06T23:21:27.228Z,72.47
2019-04-06T23:23:58.421Z,72.61
2019-04-06T23:26:29.642Z,72.77
2019-04-06T23:29:00.868Z,72.72
2019-04-06T23:31:32.286Z,72.80
2019-04-06T23:34:03.479Z,72.58
2019-04-06T23:36:34.749Z,72.80
2019-04-06T23:39:08.128Z,72.68
2019-04-06T23:41:39.217Z,72.77
2019-04-06T23:44:10.435Z,72.34
2019-04-06T23:46:41.876Z,72.74
2019-04-06T23:49:13.368Z,72.68
2019-04-06T23:51:47.839Z,72.80
2019-04-06T23:54:19.235Z,72.75
2019-04-06T23:56:51.274Z,72.68
2019-04-06T23:59:23.291Z,72.74
